sensor_id;sensor_type;location;lat;lon;timestamp;P1;durP1;ratioP1;P2;durP2;ratioP2
48767;SDS011;34933;40.968;14.538;2022-11-15T00:01:19;15.27;;;12.13;;
48767;SDS011;34933;40.968;14.538;2022-11-15T00:04:22;17.65;;;12.50;;
48767;SDS011;34933;40.968;14.538;2022-11-15T00:07:25;17.60;;;12.30;;
48767;SDS011;34933;40.968;14.538;2022-11-15T00:10:29;20.98;;;14.32;;
48767;SDS011;34933;40.968;14.538;2022-11-15T00:13:32;18.65;;;12.18;;
48767;SDS011;34933;40.968;14.538;2022-11-15T00:16:36;15.05;;;12.25;;
48767;SDS011;34933;40.968;14.538;2022-11-15T00:19:39;18.45;;;13.40;;
48767;SDS011;34933;40.968;14.538;2022-11-15T00:22:43;20.42;;;13.45;;
48767;SDS011;34933;40.968;14.538;2022-11-15T00:28:51;16.02;;;11.55;;
48767;SDS011;34933;40.968;14.538;2022-11-15T00:31:55;12.82;;;10.05;;
48767;SDS011;34933;40.968;14.538;2022-11-15T00:34:58;13.38;;;10.32;;
48767;SDS011;34933;40.968;14.538;2022-11-15T00:38:01;14.88;;;9.85;;
48767;SDS011;34933;40.968;14.538;2022-11-15T00:41:05;15.88;;;9.30;;
48767;SDS011;34933;40.968;14.538;2022-11-15T00:44:09;16.02;;;9.93;;
48767;SDS011;34933;40.968;14.538;2022-11-15T00:47:13;11.82;;;9.43;;
48767;SDS011;34933;40.968;14.538;2022-11-15T00:53:19;15.30;;;10.43;;
48767;SDS011;34933;40.968;14.538;2022-11-15T00:56:22;18.77;;;10.52;;
48767;SDS011;34933;40.968;14.538;2022-11-15T00:59:25;12.80;;;9.00;;
48767;SDS011;34933;40.968;14.538;2022-11-15T01:02:28;13.52;;;9.13;;
48767;SDS011;34933;40.968;14.538;2022-11-15T01:05:31;11.20;;;9.18;;
48767;SDS011;34933;40.968;14.538;2022-11-15T01:08:35;13.30;;;9.50;;
48767;SDS011;34933;40.968;14.538;2022-11-15T01:11:39;11.75;;;9.60;;
48767;SDS011;34933;40.968;14.538;2022-11-15T01:14:42;11.80;;;9.18;;
48767;SDS011;34933;40.968;14.538;2022-11-15T01:17:45;13.38;;;8.80;;
48767;SDS011;34933;40.968;14.538;2022-11-15T01:20:48;11.93;;;8.50;;
48767;SDS011;34933;40.968;14.538;2022-11-15T01:23:53;12.70;;;8.45;;
48767;SDS011;34933;40.968;14.538;2022-11-15T01:26:57;11.88;;;9.75;;
48767;SDS011;34933;40.968;14.538;2022-11-15T01:30:00;12.27;;;8.27;;
48767;SDS011;34933;40.968;14.538;2022-11-15T01:33:04;11.65;;;9.23;;
48767;SDS011;34933;40.968;14.538;2022-11-15T01:36:08;16.75;;;10.40;;
48767;SDS011;34933;40.968;14.538;2022-11-15T01:39:20;12.90;;;9.52;;
48767;SDS011;34933;40.968;14.538;2022-11-15T01:42:24;11.00;;;9.80;;
48767;SDS011;34933;40.968;14.538;2022-11-15T01:48:33;14.05;;;10.18;;
48767;SDS011;34933;40.968;14.538;2022-11-15T01:51:37;12.93;;;10.35;;
48767;SDS011;34933;40.968;14.538;2022-11-15T01:54:41;15.52;;;10.57;;
48767;SDS011;34933;40.968;14.538;2022-11-15T01:57:46;12.38;;;10.20;;
48767;SDS011;34933;40.968;14.538;2022-11-15T02:00:53;14.45;;;9.77;;
48767;SDS011;34933;40.968;14.538;2022-11-15T02:03:58;13.35;;;10.52;;
48767;SDS011;34933;40.968;14.538;2022-11-15T02:07:04;16.52;;;10.50;;
48767;SDS011;34933;40.968;14.538;2022-11-15T02:10:11;12.10;;;10.00;;
48767;SDS011;34933;40.968;14.538;2022-11-15T02:13:19;15.02;;;9.50;;
48767;SDS011;34933;40.968;14.538;2022-11-15T02:30:04;12.00;;;9.82;;
48767;SDS011;34933;40.968;14.538;2022-11-15T02:37:03;16.40;;;9.70;;
48767;SDS011;34933;40.968;14.538;2022-11-15T02:40:38;11.13;;;8.73;;
48767;SDS011;34933;40.968;14.538;2022-11-15T02:44:25;12.93;;;8.90;;
48767;SDS011;34933;40.968;14.538;2022-11-15T02:47:37;12.52;;;8.93;;
48767;SDS011;34933;40.968;14.538;2022-11-15T02:50:46;11.40;;;8.82;;
48767;SDS011;34933;40.968;14.538;2022-11-15T02:53:50;13.55;;;8.88;;
48767;SDS011;34933;40.968;14.538;2022-11-15T02:56:54;11.77;;;8.57;;
48767;SDS011;34933;40.968;14.538;2022-11-15T03:03:15;10.85;;;8.48;;
48767;SDS011;34933;40.968;14.538;2022-11-15T03:06:42;10.07;;;8.70;;
48767;SDS011;34933;40.968;14.538;2022-11-15T03:19:58;10.48;;;7.85;;
48767;SDS011;34933;40.968;14.538;2022-11-15T03:23:08;11.20;;;7.88;;
48767;SDS011;34933;40.968;14.538;2022-11-15T03:26:13;9.38;;;7.40;;
48767;SDS011;34933;40.968;14.538;2022-11-15T03:29:26;11.80;;;7.72;;
48767;SDS011;34933;40.968;14.538;2022-11-15T03:32:35;10.07;;;7.78;;
48767;SDS011;34933;40.968;14.538;2022-11-15T03:35:45;8.68;;;7.45;;
48767;SDS011;34933;40.968;14.538;2022-11-15T03:38:51;9.75;;;7.50;;
48767;SDS011;34933;40.968;14.538;2022-11-15T03:42:03;10.05;;;7.93;;
48767;SDS011;34933;40.968;14.538;2022-11-15T03:45:30;8.15;;;7.35;;
48767;SDS011;34933;40.968;14.538;2022-11-15T03:48:40;12.10;;;7.10;;
48767;SDS011;34933;40.968;14.538;2022-11-15T03:51:52;9.35;;;7.18;;
48767;SDS011;34933;40.968;14.538;2022-11-15T03:54:56;10.23;;;7.20;;
48767;SDS011;34933;40.968;14.538;2022-11-15T03:58:00;8.75;;;7.85;;
48767;SDS011;34933;40.968;14.538;2022-11-15T04:01:04;10.82;;;8.00;;
48767;SDS011;34933;40.968;14.538;2022-11-15T04:04:08;9.50;;;7.50;;
48767;SDS011;34933;40.968;14.538;2022-11-15T04:07:11;8.80;;;7.95;;
48767;SDS011;34933;40.968;14.538;2022-11-15T04:10:15;8.02;;;7.22;;
48767;SDS011;34933;40.968;14.538;2022-11-15T04:13:18;9.60;;;6.72;;
48767;SDS011;34933;40.968;14.538;2022-11-15T04:16:21;7.20;;;6.53;;
48767;SDS011;34933;40.968;14.538;2022-11-15T04:19:24;9.07;;;6.38;;
48767;SDS011;34933;40.968;14.538;2022-11-15T04:22:46;8.18;;;7.38;;
48767;SDS011;34933;40.968;14.538;2022-11-15T04:26:12;8.88;;;7.20;;
48767;SDS011;34933;40.968;14.538;2022-11-15T04:29:18;8.65;;;6.97;;
48767;SDS011;34933;40.968;14.538;2022-11-15T04:32:36;8.57;;;7.35;;
48767;SDS011;34933;40.968;14.538;2022-11-15T04:38:44;10.73;;;6.97;;
48767;SDS011;34933;40.968;14.538;2022-11-15T04:41:47;8.98;;;7.18;;
48767;SDS011;34933;40.968;14.538;2022-11-15T04:47:53;10.52;;;6.57;;
48767;SDS011;34933;40.968;14.538;2022-11-15T04:50:56;9.30;;;6.88;;
48767;SDS011;34933;40.968;14.538;2022-11-15T04:54:00;13.13;;;7.43;;
48767;SDS011;34933;40.968;14.538;2022-11-15T05:00:07;7.85;;;6.43;;
48767;SDS011;34933;40.968;14.538;2022-11-15T05:03:13;13.50;;;7.70;;
48767;SDS011;34933;40.968;14.538;2022-11-15T05:06:35;10.82;;;8.18;;
48767;SDS011;34933;40.968;14.538;2022-11-15T05:09:38;10.50;;;7.85;;
48767;SDS011;34933;40.968;14.538;2022-11-15T05:15:44;12.88;;;7.95;;
48767;SDS011;34933;40.968;14.538;2022-11-15T05:18:50;10.60;;;7.53;;
48767;SDS011;34933;40.968;14.538;2022-11-15T05:21:56;9.05;;;7.60;;
48767;SDS011;34933;40.968;14.538;2022-11-15T05:28:02;10.48;;;7.95;;
48767;SDS011;34933;40.968;14.538;2022-11-15T05:31:07;7.28;;;5.68;;
48767;SDS011;34933;40.968;14.538;2022-11-15T05:34:15;19.00;;;6.28;;
48767;SDS011;34933;40.968;14.538;2022-11-15T05:37:19;12.07;;;7.22;;
48767;SDS011;34933;40.968;14.538;2022-11-15T05:40:23;10.48;;;6.07;;
48767;SDS011;34933;40.968;14.538;2022-11-15T05:43:26;6.60;;;5.15;;
48767;SDS011;34933;40.968;14.538;2022-11-15T05:46:32;12.60;;;6.57;;
48767;SDS011;34933;40.968;14.538;2022-11-15T05:49:36;10.38;;;7.03;;
48767;SDS011;34933;40.968;14.538;2022-11-15T05:52:42;9.23;;;6.30;;
48767;SDS011;34933;40.968;14.538;2022-11-15T05:55:47;9.10;;;5.85;;
48767;SDS011;34933;40.968;14.538;2022-11-15T05:58:52;9.15;;;6.70;;
48767;SDS011;34933;40.968;14.538;2022-11-15T06:01:57;10.43;;;7.43;;
48767;SDS011;34933;40.968;14.538;2022-11-15T06:05:00;18.92;;;9.95;;
48767;SDS011;34933;40.968;14.538;2022-11-15T06:08:04;14.35;;;8.02;;
48767;SDS011;34933;40.968;14.538;2022-11-15T06:11:08;10.85;;;7.07;;
48767;SDS011;34933;40.968;14.538;2022-11-15T06:14:11;9.20;;;6.03;;
48767;SDS011;34933;40.968;14.538;2022-11-15T06:20:17;10.60;;;6.18;;
48767;SDS011;34933;40.968;14.538;2022-11-15T06:23:20;14.95;;;7.32;;
48767;SDS011;34933;40.968;14.538;2022-11-15T06:26:23;7.30;;;6.40;;
48767;SDS011;34933;40.968;14.538;2022-11-15T06:29:27;8.25;;;5.95;;
48767;SDS011;34933;40.968;14.538;2022-11-15T06:32:30;11.20;;;5.70;;
48767;SDS011;34933;40.968;14.538;2022-11-15T06:35:34;14.90;;;6.07;;
48767;SDS011;34933;40.968;14.538;2022-11-15T06:38:38;9.98;;;5.18;;
48767;SDS011;34933;40.968;14.538;2022-11-15T06:41:41;12.45;;;6.13;;
48767;SDS011;34933;40.968;14.538;2022-11-15T06:47:47;15.30;;;10.15;;
48767;SDS011;34933;40.968;14.538;2022-11-15T06:50:54;32.08;;;21.65;;
48767;SDS011;34933;40.968;14.538;2022-11-15T06:53:59;26.67;;;19.33;;
48767;SDS011;34933;40.968;14.538;2022-11-15T06:57:03;15.05;;;12.43;;
48767;SDS011;34933;40.968;14.538;2022-11-15T07:00:08;12.40;;;9.65;;
48767;SDS011;34933;40.968;14.538;2022-11-15T07:03:12;13.23;;;9.38;;
48767;SDS011;34933;40.968;14.538;2022-11-15T07:06:15;20.63;;;9.15;;
48767;SDS011;34933;40.968;14.538;2022-11-15T07:18:28;10.48;;;6.80;;
48767;SDS011;34933;40.968;14.538;2022-11-15T07:21:32;11.23;;;6.38;;
48767;SDS011;34933;40.968;14.538;2022-11-15T07:24:35;10.05;;;5.65;;
48767;SDS011;34933;40.968;14.538;2022-11-15T07:27:38;18.60;;;6.63;;
48767;SDS011;34933;40.968;14.538;2022-11-15T07:30:41;11.77;;;6.20;;
48767;SDS011;34933;40.968;14.538;2022-11-15T07:33:44;15.73;;;7.75;;
48767;SDS011;34933;40.968;14.538;2022-11-15T07:36:47;10.52;;;5.93;;
48767;SDS011;34933;40.968;14.538;2022-11-15T07:39:50;8.48;;;5.20;;
48767;SDS011;34933;40.968;14.538;2022-11-15T07:43:00;8.43;;;5.05;;
48767;SDS011;34933;40.968;14.538;2022-11-15T07:46:08;9.50;;;4.78;;
48767;SDS011;34933;40.968;14.538;2022-11-15T07:49:11;11.93;;;5.22;;
48767;SDS011;34933;40.968;14.538;2022-11-15T07:52:14;12.48;;;5.50;;
48767;SDS011;34933;40.968;14.538;2022-11-15T07:55:17;8.45;;;5.95;;
48767;SDS011;34933;40.968;14.538;2022-11-15T07:58:21;7.05;;;5.30;;
48767;SDS011;34933;40.968;14.538;2022-11-15T08:01:24;13.73;;;6.75;;
48767;SDS011;34933;40.968;14.538;2022-11-15T08:04:27;12.38;;;5.18;;
48767;SDS011;34933;40.968;14.538;2022-11-15T08:07:30;12.15;;;6.45;;
48767;SDS011;34933;40.968;14.538;2022-11-15T08:10:34;17.88;;;5.82;;
48767;SDS011;34933;40.968;14.538;2022-11-15T08:13:38;9.07;;;4.60;;
48767;SDS011;34933;40.968;14.538;2022-11-15T08:16:41;13.18;;;4.55;;
48767;SDS011;34933;40.968;14.538;2022-11-15T08:19:44;5.78;;;4.03;;
48767;SDS011;34933;40.968;14.538;2022-11-15T08:22:48;6.18;;;3.70;;
48767;SDS011;34933;40.968;14.538;2022-11-15T08:25:51;5.22;;;2.50;;
48767;SDS011;34933;40.968;14.538;2022-11-15T08:28:54;12.43;;;7.80;;
48767;SDS011;34933;40.968;14.538;2022-11-15T08:31:58;9.02;;;4.70;;
48767;SDS011;34933;40.968;14.538;2022-11-15T08:35:01;7.70;;;2.90;;
48767;SDS011;34933;40.968;14.538;2022-11-15T08:38:04;8.38;;;4.40;;
48767;SDS011;34933;40.968;14.538;2022-11-15T08:41:09;76.50;;;68.97;;
48767;SDS011;34933;40.968;14.538;2022-11-15T08:47:23;5.60;;;3.95;;
48767;SDS011;34933;40.968;14.538;2022-11-15T08:50:27;10.70;;;3.92;;
48767;SDS011;34933;40.968;14.538;2022-11-15T08:53:30;3.80;;;2.50;;
48767;SDS011;34933;40.968;14.538;2022-11-15T08:56:34;5.38;;;2.78;;
48767;SDS011;34933;40.968;14.538;2022-11-15T08:59:37;6.20;;;2.80;;
48767;SDS011;34933;40.968;14.538;2022-11-15T09:02:40;7.68;;;3.83;;
48767;SDS011;34933;40.968;14.538;2022-11-15T09:05:43;9.98;;;3.65;;
48767;SDS011;34933;40.968;14.538;2022-11-15T09:08:46;7.68;;;3.83;;
48767;SDS011;34933;40.968;14.538;2022-11-15T09:11:50;5.97;;;3.35;;
48767;SDS011;34933;40.968;14.538;2022-11-15T09:14:54;25.85;;;23.45;;
48767;SDS011;34933;40.968;14.538;2022-11-15T09:18:00;4.70;;;3.47;;
48767;SDS011;34933;40.968;14.538;2022-11-15T09:21:03;6.65;;;2.72;;
48767;SDS011;34933;40.968;14.538;2022-11-15T09:24:07;6.30;;;2.60;;
48767;SDS011;34933;40.968;14.538;2022-11-15T09:27:10;2.80;;;2.30;;
48767;SDS011;34933;40.968;14.538;2022-11-15T09:30:14;3.08;;;1.83;;
48767;SDS011;34933;40.968;14.538;2022-11-15T09:33:18;3.80;;;1.67;;
48767;SDS011;34933;40.968;14.538;2022-11-15T09:36:21;3.38;;;2.15;;
48767;SDS011;34933;40.968;14.538;2022-11-15T09:39:25;4.75;;;1.83;;
48767;SDS011;34933;40.968;14.538;2022-11-15T09:49:07;3.25;;;1.50;;
48767;SDS011;34933;40.968;14.538;2022-11-15T09:54:54;2.83;;;1.20;;
48767;SDS011;34933;40.968;14.538;2022-11-15T10:00:47;1.15;;;1.05;;
48767;SDS011;34933;40.968;14.538;2022-11-15T10:03:37;2.95;;;0.95;;
48767;SDS011;34933;40.968;14.538;2022-11-15T10:06:26;3.95;;;1.50;;
48767;SDS011;34933;40.968;14.538;2022-11-15T10:09:19;2.13;;;1.88;;
48767;SDS011;34933;40.968;14.538;2022-11-15T10:12:17;2.30;;;1.50;;
48767;SDS011;34933;40.968;14.538;2022-11-15T10:15:05;1.90;;;1.05;;
48767;SDS011;34933;40.968;14.538;2022-11-15T10:21:14;4.28;;;1.38;;
48767;SDS011;34933;40.968;14.538;2022-11-15T10:24:06;1.98;;;1.33;;
48767;SDS011;34933;40.968;14.538;2022-11-15T10:26:55;3.88;;;1.98;;
48767;SDS011;34933;40.968;14.538;2022-11-15T10:29:44;2.88;;;1.80;;
48767;SDS011;34933;40.968;14.538;2022-11-15T10:32:30;3.63;;;1.80;;
48767;SDS011;34933;40.968;14.538;2022-11-15T10:35:25;5.38;;;2.60;;
48767;SDS011;34933;40.968;14.538;2022-11-15T10:38:12;3.85;;;2.75;;
48767;SDS011;34933;40.968;14.538;2022-11-15T10:41:04;4.05;;;2.25;;
48767;SDS011;34933;40.968;14.538;2022-11-15T10:49:38;2.58;;;2.38;;
48767;SDS011;34933;40.968;14.538;2022-11-15T10:52:44;3.13;;;2.72;;
48767;SDS011;34933;40.968;14.538;2022-11-15T10:55:31;2.40;;;2.20;;
48767;SDS011;34933;40.968;14.538;2022-11-15T11:01:28;2.90;;;2.03;;
48767;SDS011;34933;40.968;14.538;2022-11-15T11:04:15;6.75;;;3.10;;
48767;SDS011;34933;40.968;14.538;2022-11-15T11:07:00;2.45;;;1.70;;
48767;SDS011;34933;40.968;14.538;2022-11-15T11:09:45;5.35;;;2.15;;
48767;SDS011;34933;40.968;14.538;2022-11-15T11:12:41;3.30;;;1.77;;
48767;SDS011;34933;40.968;14.538;2022-11-15T11:15:26;2.65;;;1.88;;
48767;SDS011;34933;40.968;14.538;2022-11-15T11:18:22;6.75;;;2.80;;
48767;SDS011;34933;40.968;14.538;2022-11-15T11:21:18;4.65;;;3.30;;
48767;SDS011;34933;40.968;14.538;2022-11-15T11:41:50;5.93;;;3.80;;
48767;SDS011;34933;40.968;14.538;2022-11-15T11:47:34;6.47;;;4.10;;
48767;SDS011;34933;40.968;14.538;2022-11-15T11:50:27;7.25;;;3.20;;
48767;SDS011;34933;40.968;14.538;2022-11-15T11:53:14;5.18;;;4.35;;
48767;SDS011;34933;40.968;14.538;2022-11-15T11:56:50;10.90;;;5.47;;
48767;SDS011;34933;40.968;14.538;2022-11-15T12:02:46;4.88;;;2.40;;
48767;SDS011;34933;40.968;14.538;2022-11-15T12:05:34;6.25;;;3.05;;
48767;SDS011;34933;40.968;14.538;2022-11-15T12:15:32;9.15;;;4.75;;
48767;SDS011;34933;40.968;14.538;2022-11-15T12:17:47;6.18;;;5.18;;
48767;SDS011;34933;40.968;14.538;2022-11-15T12:20:37;6.57;;;3.28;;
48767;SDS011;34933;40.968;14.538;2022-11-15T12:23:30;4.07;;;3.70;;
48767;SDS011;34933;40.968;14.538;2022-11-15T12:26:23;11.55;;;5.43;;
48767;SDS011;34933;40.968;14.538;2022-11-15T12:29:19;2.85;;;2.58;;
48767;SDS011;34933;40.968;14.538;2022-11-15T12:32:25;7.35;;;2.05;;
48767;SDS011;34933;40.968;14.538;2022-11-15T12:38:50;3.55;;;2.35;;
48767;SDS011;34933;40.968;14.538;2022-11-15T12:41:32;5.70;;;2.50;;
48767;SDS011;34933;40.968;14.538;2022-11-15T12:47:22;5.22;;;2.65;;
48767;SDS011;34933;40.968;14.538;2022-11-15T12:50:12;7.05;;;3.53;;
48767;SDS011;34933;40.968;14.538;2022-11-15T13:01:52;25.67;;;12.13;;
48767;SDS011;34933;40.968;14.538;2022-11-15T13:04:41;32.83;;;17.52;;
48767;SDS011;34933;40.968;14.538;2022-11-15T13:13:07;4.47;;;3.00;;
48767;SDS011;34933;40.968;14.538;2022-11-15T13:15:54;27.48;;;12.68;;
48767;SDS011;34933;40.968;14.538;2022-11-15T13:18:40;6.05;;;2.40;;
48767;SDS011;34933;40.968;14.538;2022-11-15T13:21:25;6.57;;;2.60;;
48767;SDS011;34933;40.968;14.538;2022-11-15T13:24:28;6.53;;;2.60;;
48767;SDS011;34933;40.968;14.538;2022-11-15T13:27:15;2.90;;;2.47;;
48767;SDS011;34933;40.968;14.538;2022-11-15T13:30:03;3.50;;;2.05;;
48767;SDS011;34933;40.968;14.538;2022-11-15T13:32:48;2.53;;;2.33;;
48767;SDS011;34933;40.968;14.538;2022-11-15T13:35:33;12.30;;;6.72;;
48767;SDS011;34933;40.968;14.538;2022-11-15T13:41:28;5.82;;;2.35;;
48767;SDS011;34933;40.968;14.538;2022-11-15T13:44:27;3.88;;;1.90;;
48767;SDS011;34933;40.968;14.538;2022-11-15T13:47:14;6.78;;;2.78;;
48767;SDS011;34933;40.968;14.538;2022-11-15T13:50:02;2.53;;;2.30;;
48767;SDS011;34933;40.968;14.538;2022-11-15T13:52:47;3.75;;;1.88;;
48767;SDS011;34933;40.968;14.538;2022-11-15T13:55:32;3.83;;;2.15;;
48767;SDS011;34933;40.968;14.538;2022-11-15T13:58:17;4.38;;;3.25;;
48767;SDS011;34933;40.968;14.538;2022-11-15T14:01:03;7.00;;;5.30;;
48767;SDS011;34933;40.968;14.538;2022-11-15T14:03:54;6.72;;;2.85;;
48767;SDS011;34933;40.968;14.538;2022-11-15T14:06:45;5.65;;;3.28;;
48767;SDS011;34933;40.968;14.538;2022-11-15T14:09:37;5.03;;;2.47;;
48767;SDS011;34933;40.968;14.538;2022-11-15T14:15:33;5.25;;;2.35;;
48767;SDS011;34933;40.968;14.538;2022-11-15T14:21:25;6.88;;;2.53;;
48767;SDS011;34933;40.968;14.538;2022-11-15T14:24:17;3.83;;;1.92;;
48767;SDS011;34933;40.968;14.538;2022-11-15T14:27:20;3.88;;;2.00;;
48767;SDS011;34933;40.968;14.538;2022-11-15T14:30:14;3.60;;;2.63;;
48767;SDS011;34933;40.968;14.538;2022-11-15T14:32:59;6.07;;;2.40;;
48767;SDS011;34933;40.968;14.538;2022-11-15T14:35:44;4.97;;;2.92;;
48767;SDS011;34933;40.968;14.538;2022-11-15T14:38:28;11.43;;;5.97;;
48767;SDS011;34933;40.968;14.538;2022-11-15T14:41:20;5.75;;;3.45;;
48767;SDS011;34933;40.968;14.538;2022-11-15T14:44:09;7.72;;;3.78;;
48767;SDS011;34933;40.968;14.538;2022-11-15T14:46:56;7.82;;;4.35;;
48767;SDS011;34933;40.968;14.538;2022-11-15T14:49:41;13.88;;;4.47;;
48767;SDS011;34933;40.968;14.538;2022-11-15T14:52:26;5.88;;;3.47;;
48767;SDS011;34933;40.968;14.538;2022-11-15T14:55:19;17.90;;;9.23;;
48767;SDS011;34933;40.968;14.538;2022-11-15T14:58:05;12.02;;;6.45;;
48767;SDS011;34933;40.968;14.538;2022-11-15T15:00:51;15.00;;;8.30;;
48767;SDS011;34933;40.968;14.538;2022-11-15T15:03:36;7.15;;;5.05;;
48767;SDS011;34933;40.968;14.538;2022-11-15T15:06:20;19.48;;;8.98;;
48767;SDS011;34933;40.968;14.538;2022-11-15T15:09:05;14.13;;;9.13;;
48767;SDS011;34933;40.968;14.538;2022-11-15T15:11:50;15.55;;;6.97;;
48767;SDS011;34933;40.968;14.538;2022-11-15T15:14:35;14.80;;;7.90;;
48767;SDS011;34933;40.968;14.538;2022-11-15T15:17:19;27.33;;;14.43;;
48767;SDS011;34933;40.968;14.538;2022-11-15T15:20:04;39.83;;;19.95;;
48767;SDS011;34933;40.968;14.538;2022-11-15T15:22:49;25.27;;;14.68;;
48767;SDS011;34933;40.968;14.538;2022-11-15T15:25:34;24.17;;;12.60;;
48767;SDS011;34933;40.968;14.538;2022-11-15T15:28:19;22.88;;;11.05;;
48767;SDS011;34933;40.968;14.538;2022-11-15T15:31:04;34.92;;;16.55;;
48767;SDS011;34933;40.968;14.538;2022-11-15T15:33:49;55.10;;;25.13;;
48767;SDS011;34933;40.968;14.538;2022-11-15T15:36:33;64.47;;;30.60;;
48767;SDS011;34933;40.968;14.538;2022-11-15T15:39:18;52.00;;;22.80;;
48767;SDS011;34933;40.968;14.538;2022-11-15T15:42:02;47.38;;;24.38;;
48767;SDS011;34933;40.968;14.538;2022-11-15T15:44:47;45.75;;;20.67;;
48767;SDS011;34933;40.968;14.538;2022-11-15T15:47:35;30.92;;;15.70;;
48767;SDS011;34933;40.968;14.538;2022-11-15T15:50:21;36.88;;;17.63;;
48767;SDS011;34933;40.968;14.538;2022-11-15T15:53:08;28.27;;;15.73;;
48767;SDS011;34933;40.968;14.538;2022-11-15T15:55:57;31.00;;;16.05;;
48767;SDS011;34933;40.968;14.538;2022-11-15T15:58:42;30.27;;;15.93;;
48767;SDS011;34933;40.968;14.538;2022-11-15T16:01:26;24.27;;;14.68;;
48767;SDS011;34933;40.968;14.538;2022-11-15T16:04:11;25.88;;;14.57;;
48767;SDS011;34933;40.968;14.538;2022-11-15T16:06:59;39.78;;;17.88;;
48767;SDS011;34933;40.968;14.538;2022-11-15T16:09:44;28.83;;;18.38;;
48767;SDS011;34933;40.968;14.538;2022-11-15T16:12:44;41.78;;;23.42;;
48767;SDS011;34933;40.968;14.538;2022-11-15T16:15:29;65.22;;;35.38;;
48767;SDS011;34933;40.968;14.538;2022-11-15T16:18:15;53.08;;;30.52;;
48767;SDS011;34933;40.968;14.538;2022-11-15T16:21:01;55.67;;;32.55;;
48767;SDS011;34933;40.968;14.538;2022-11-15T16:23:45;58.90;;;30.95;;
48767;SDS011;34933;40.968;14.538;2022-11-15T16:26:30;126.28;;;72.43;;
48767;SDS011;34933;40.968;14.538;2022-11-15T16:29:16;103.78;;;58.22;;
48767;SDS011;34933;40.968;14.538;2022-11-15T16:32:01;50.08;;;32.17;;
48767;SDS011;34933;40.968;14.538;2022-11-15T16:34:46;46.85;;;27.83;;
48767;SDS011;34933;40.968;14.538;2022-11-15T16:37:30;37.25;;;22.27;;
48767;SDS011;34933;40.968;14.538;2022-11-15T16:42:59;47.97;;;25.20;;
48767;SDS011;34933;40.968;14.538;2022-11-15T16:45:45;70.97;;;45.47;;
48767;SDS011;34933;40.968;14.538;2022-11-15T16:48:30;61.03;;;37.60;;
48767;SDS011;34933;40.968;14.538;2022-11-15T16:51:15;39.63;;;27.77;;
48767;SDS011;34933;40.968;14.538;2022-11-15T16:53:59;36.53;;;23.50;;
48767;SDS011;34933;40.968;14.538;2022-11-15T16:56:44;32.55;;;21.52;;
48767;SDS011;34933;40.968;14.538;2022-11-15T16:59:29;27.98;;;18.20;;
48767;SDS011;34933;40.968;14.538;2022-11-15T17:02:15;28.42;;;18.30;;
48767;SDS011;34933;40.968;14.538;2022-11-15T17:05:01;25.63;;;17.40;;
48767;SDS011;34933;40.968;14.538;2022-11-15T17:07:46;22.15;;;17.10;;
48767;SDS011;34933;40.968;14.538;2022-11-15T17:10:33;31.23;;;18.17;;
48767;SDS011;34933;40.968;14.538;2022-11-15T17:13:17;25.98;;;17.15;;
48767;SDS011;34933;40.968;14.538;2022-11-15T17:16:03;27.58;;;16.38;;
48767;SDS011;34933;40.968;14.538;2022-11-15T17:18:49;21.83;;;15.88;;
48767;SDS011;34933;40.968;14.538;2022-11-15T17:21:34;28.50;;;18.35;;
48767;SDS011;34933;40.968;14.538;2022-11-15T17:24:19;29.88;;;16.77;;
48767;SDS011;34933;40.968;14.538;2022-11-15T17:27:03;24.80;;;15.73;;
48767;SDS011;34933;40.968;14.538;2022-11-15T17:29:48;37.60;;;21.38;;
48767;SDS011;34933;40.968;14.538;2022-11-15T17:32:36;178.20;;;97.57;;
48767;SDS011;34933;40.968;14.538;2022-11-15T17:35:20;108.57;;;61.15;;
48767;SDS011;34933;40.968;14.538;2022-11-15T17:38:05;60.95;;;33.88;;
48767;SDS011;34933;40.968;14.538;2022-11-15T17:41:11;32.10;;;20.17;;
48767;SDS011;34933;40.968;14.538;2022-11-15T17:43:58;20.80;;;15.10;;
48767;SDS011;34933;40.968;14.538;2022-11-15T17:46:44;28.92;;;16.85;;
48767;SDS011;34933;40.968;14.538;2022-11-15T17:49:29;28.15;;;19.65;;
48767;SDS011;34933;40.968;14.538;2022-11-15T17:52:13;24.00;;;16.10;;
48767;SDS011;34933;40.968;14.538;2022-11-15T17:54:58;21.92;;;16.48;;
48767;SDS011;34933;40.968;14.538;2022-11-15T17:57:42;22.30;;;16.88;;
48767;SDS011;34933;40.968;14.538;2022-11-15T18:00:27;21.23;;;15.80;;
48767;SDS011;34933;40.968;14.538;2022-11-15T18:03:12;23.33;;;17.10;;
48767;SDS011;34933;40.968;14.538;2022-11-15T18:05:57;25.08;;;16.70;;
48767;SDS011;34933;40.968;14.538;2022-11-15T18:08:42;25.13;;;16.80;;
48767;SDS011;34933;40.968;14.538;2022-11-15T18:11:29;23.88;;;16.35;;
48767;SDS011;34933;40.968;14.538;2022-11-15T18:14:16;22.60;;;15.75;;
48767;SDS011;34933;40.968;14.538;2022-11-15T18:17:01;26.17;;;17.05;;
48767;SDS011;34933;40.968;14.538;2022-11-15T18:19:46;23.10;;;15.80;;
48767;SDS011;34933;40.968;14.538;2022-11-15T18:22:31;21.02;;;13.50;;
48767;SDS011;34933;40.968;14.538;2022-11-15T18:25:15;20.98;;;13.88;;
48767;SDS011;34933;40.968;14.538;2022-11-15T18:28:00;20.38;;;13.75;;
48767;SDS011;34933;40.968;14.538;2022-11-15T18:30:45;22.90;;;13.77;;
48767;SDS011;34933;40.968;14.538;2022-11-15T18:33:32;25.00;;;15.18;;
48767;SDS011;34933;40.968;14.538;2022-11-15T18:36:18;24.77;;;14.30;;
48767;SDS011;34933;40.968;14.538;2022-11-15T18:39:04;28.38;;;20.15;;
48767;SDS011;34933;40.968;14.538;2022-11-15T18:41:50;33.03;;;20.40;;
48767;SDS011;34933;40.968;14.538;2022-11-15T18:44:35;28.80;;;22.20;;
48767;SDS011;34933;40.968;14.538;2022-11-15T18:47:19;33.33;;;23.40;;
48767;SDS011;34933;40.968;14.538;2022-11-15T18:50:04;31.20;;;20.45;;
48767;SDS011;34933;40.968;14.538;2022-11-15T18:52:49;23.35;;;17.05;;
48767;SDS011;34933;40.968;14.538;2022-11-15T18:55:34;30.10;;;20.48;;
48767;SDS011;34933;40.968;14.538;2022-11-15T18:58:18;31.15;;;21.33;;
48767;SDS011;34933;40.968;14.538;2022-11-15T19:01:03;28.17;;;18.42;;
48767;SDS011;34933;40.968;14.538;2022-11-15T19:03:53;29.63;;;17.88;;
48767;SDS011;34933;40.968;14.538;2022-11-15T19:06:40;24.60;;;15.02;;
48767;SDS011;34933;40.968;14.538;2022-11-15T19:09:27;28.05;;;17.38;;
48767;SDS011;34933;40.968;14.538;2022-11-15T19:12:15;23.77;;;16.40;;
48767;SDS011;34933;40.968;14.538;2022-11-15T19:15:00;29.30;;;17.50;;
48767;SDS011;34933;40.968;14.538;2022-11-15T19:17:44;27.30;;;16.23;;
48767;SDS011;34933;40.968;14.538;2022-11-15T19:20:29;24.55;;;15.18;;
48767;SDS011;34933;40.968;14.538;2022-11-15T19:25:59;24.63;;;17.73;;
48767;SDS011;34933;40.968;14.538;2022-11-15T19:28:48;23.98;;;16.27;;
48767;SDS011;34933;40.968;14.538;2022-11-15T19:31:35;24.45;;;14.15;;
48767;SDS011;34933;40.968;14.538;2022-11-15T19:34:19;17.77;;;12.57;;
48767;SDS011;34933;40.968;14.538;2022-11-15T19:37:04;18.13;;;12.88;;
48767;SDS011;34933;40.968;14.538;2022-11-15T19:39:49;17.88;;;12.30;;
48767;SDS011;34933;40.968;14.538;2022-11-15T19:42:34;21.40;;;13.40;;
48767;SDS011;34933;40.968;14.538;2022-11-15T19:45:19;19.30;;;13.38;;
48767;SDS011;34933;40.968;14.538;2022-11-15T19:48:03;16.95;;;12.48;;
48767;SDS011;34933;40.968;14.538;2022-11-15T19:50:48;24.17;;;17.98;;
48767;SDS011;34933;40.968;14.538;2022-11-15T19:53:34;27.20;;;16.80;;